createdAt,value
2023-02-08T00:01:33.961Z,4.51
2023-02-08T00:04:07.326Z,4.50
2023-02-08T00:06:35.915Z,4.46
2023-02-08T00:09:04.954Z,4.43
2023-02-08T00:11:33.597Z,4.42
2023-02-08T00:14:02.315Z,4.44
2023-02-08T00:16:30.982Z,4.47
2023-02-08T00:18:59.552Z,4.49
2023-02-08T00:21:29.606Z,4.56
2023-02-08T00:24:01.408Z,4.60
2023-02-08T00:26:30.183Z,4.61
2023-02-08T00:28:58.737Z,4.67
2023-02-08T00:31:27.434Z,4.71
2023-02-08T00:33:56.027Z,4.77
2023-02-08T00:36:24.660Z,4.85
2023-02-08T00:38:55.515Z,4.93
2023-02-08T00:41:24.631Z,5.01
2023-02-08T00:43:53.848Z,5.05
2023-02-08T00:46:22.330Z,5.08
2023-02-08T00:48:51.178Z,5.11
2023-02-08T00:51:19.872Z,5.18
2023-02-08T00:53:50.510Z,5.23
2023-02-08T00:56:20.956Z,5.22
2023-02-08T00:58:49.581Z,5.24
2023-02-08T01:01:18.200Z,5.23
2023-02-08T01:03:48.074Z,5.23
2023-02-08T01:06:19.022Z,5.23
2023-02-08T01:08:47.737Z,5.24
2023-02-08T01:11:22.147Z,5.29
2023-02-08T01:13:51.670Z,5.33
2023-02-08T01:16:22.312Z,5.34
2023-02-08T01:18:53.463Z,5.37
2023-02-08T01:21:23.665Z,5.37
2023-02-08T01:23:53.008Z,5.37
2023-02-08T01:26:24.827Z,5.36
2023-02-08T01:28:54.127Z,5.39
2023-02-08T01:31:25.279Z,5.40
2023-02-08T01:33:54.043Z,5.39
2023-02-08T01:36:23.178Z,5.39
2023-02-08T01:38:51.923Z,5.30
2023-02-08T01:41:24.297Z,5.35
2023-02-08T01:44:30.987Z,5.39
2023-02-08T01:47:00.675Z,5.41
2023-02-08T01:49:33.661Z,5.44
2023-02-08T01:52:07.498Z,5.48
2023-02-08T01:54:42.194Z,5.47
2023-02-08T01:57:12.410Z,5.46
2023-02-08T01:59:48.669Z,5.43
2023-02-08T02:02:19.950Z,5.44
2023-02-08T02:04:49.387Z,5.45
2023-02-08T02:07:18.685Z,5.45
2023-02-08T02:09:52.731Z,5.46
2023-02-08T02:12:23.623Z,5.47
2023-02-08T02:14:53.058Z,5.45
2023-02-08T02:17:22.041Z,5.45
2023-02-08T02:19:59.162Z,5.43
2023-02-08T02:22:50.808Z,5.38
2023-02-08T02:25:45.536Z,5.29
2023-02-08T02:28:38.250Z,5.16
2023-02-08T02:31:49.634Z,5.06
2023-02-08T02:34:26.714Z,4.99
2023-02-08T02:37:04.696Z,4.90
2023-02-08T02:39:40.702Z,4.82
2023-02-08T02:42:33.386Z,4.76
2023-02-08T02:45:10.039Z,4.71
2023-02-08T02:47:47.344Z,4.65
2023-02-08T02:50:25.324Z,4.49
2023-02-08T02:53:00.779Z,4.46
2023-02-08T02:55:34.788Z,4.48
2023-02-08T02:58:05.358Z,4.63
2023-02-08T03:00:35.403Z,4.71
2023-02-08T03:03:08.558Z,4.75
2023-02-08T03:05:37.265Z,4.82
2023-02-08T03:08:26.158Z,4.90
2023-02-08T03:11:19.102Z,4.92
2023-02-08T03:14:19.354Z,4.92
2023-02-08T03:17:03.869Z,4.85
2023-02-08T03:19:40.555Z,4.83
2023-02-08T03:22:16.403Z,4.79
2023-02-08T03:24:54.862Z,4.74
2023-02-08T03:27:33.402Z,4.74
2023-02-08T03:30:08.338Z,4.72
2023-02-08T03:32:43.669Z,4.68
2023-02-08T03:35:19.369Z,4.65
2023-02-08T03:37:52.072Z,4.61
2023-02-08T03:40:28.652Z,4.58
2023-02-08T03:43:02.933Z,4.54
2023-02-08T03:45:35.826Z,4.53
2023-02-08T03:48:08.328Z,4.53
2023-02-08T03:50:41.518Z,4.53
2023-02-08T03:53:12.492Z,4.54
2023-02-08T03:55:43.827Z,4.54
2023-02-08T03:58:18.447Z,4.53
2023-02-08T04:00:56.390Z,4.53
2023-02-08T04:03:28.673Z,4.58
2023-02-08T04:05:59.025Z,4.64
2023-02-08T04:08:27.584Z,4.61
2023-02-08T04:10:56.256Z,4.62
2023-02-08T04:13:24.793Z,4.70
2023-02-08T04:15:53.485Z,4.73
2023-02-08T04:18:22.457Z,4.66
2023-02-08T04:20:50.753Z,4.59
2023-02-08T04:23:21.785Z,4.65
2023-02-08T04:25:50.560Z,4.62
2023-02-08T04:28:19.229Z,4.63
2023-02-08T04:30:47.958Z,4.69
2023-02-08T04:33:16.797Z,4.71
2023-02-08T04:35:45.415Z,4.74
2023-02-08T04:38:14.062Z,4.85
2023-02-08T04:40:44.277Z,4.90
2023-02-08T04:43:12.748Z,4.99
2023-02-08T04:45:41.282Z,5.05
2023-02-08T04:48:11.816Z,5.03
2023-02-08T04:50:40.874Z,5.06
2023-02-08T04:53:10.141Z,5.07
2023-02-08T04:55:38.808Z,5.14
2023-02-08T04:58:08.714Z,5.09
2023-02-08T05:00:37.344Z,5.05
2023-02-08T05:03:06.074Z,5.01
2023-02-08T05:05:34.655Z,4.95
2023-02-08T05:08:03.243Z,4.91
2023-02-08T05:10:31.802Z,4.86
2023-02-08T05:13:00.605Z,4.86
2023-02-08T05:15:30.663Z,4.80
2023-02-08T05:17:59.366Z,4.78
2023-02-08T05:20:28.478Z,4.70
2023-02-08T05:22:56.843Z,4.63
2023-02-08T05:25:25.457Z,4.58
2023-02-08T05:27:53.827Z,4.51
2023-02-08T05:30:22.505Z,4.59
2023-02-08T05:32:54.703Z,4.69
2023-02-08T05:35:23.335Z,4.69
2023-02-08T05:37:51.993Z,4.66
2023-02-08T05:40:20.619Z,4.59
2023-02-08T05:42:49.213Z,4.54
2023-02-08T05:45:17.769Z,4.47
2023-02-08T05:47:47.890Z,4.44
2023-02-08T05:50:18.217Z,4.45
2023-02-08T05:52:46.833Z,4.51
2023-02-08T05:55:15.386Z,4.49
2023-02-08T05:57:46.073Z,4.45
2023-02-08T06:00:17.166Z,4.39
2023-02-08T06:02:45.860Z,4.35
2023-02-08T06:05:14.480Z,4.34
2023-02-08T06:07:44.745Z,4.31
2023-02-08T06:10:13.932Z,4.37
2023-02-08T06:12:42.286Z,4.37
2023-02-08T06:15:11.706Z,4.36
2023-02-08T06:17:40.337Z,4.33
2023-02-08T06:20:09.612Z,4.29
2023-02-08T06:22:38.786Z,4.26
2023-02-08T06:25:09.862Z,4.29
2023-02-08T06:27:38.306Z,4.24
2023-02-08T06:30:07.512Z,4.23
2023-02-08T06:32:36.088Z,4.24
2023-02-08T06:35:05.086Z,4.23
2023-02-08T06:37:33.750Z,4.21
2023-02-08T06:40:02.454Z,4.16
2023-02-08T06:42:32.958Z,4.13
2023-02-08T06:45:01.639Z,4.10
2023-02-08T06:47:30.461Z,4.01
2023-02-08T06:49:59.117Z,3.97
2023-02-08T06:52:27.897Z,3.96
2023-02-08T06:54:56.757Z,3.90
2023-02-08T06:57:25.586Z,3.89
2023-02-08T06:59:56.017Z,3.91
2023-02-08T07:02:24.774Z,3.93
2023-02-08T07:04:53.353Z,3.94
2023-02-08T07:07:22.029Z,3.97
2023-02-08T07:09:50.633Z,3.95
2023-02-08T07:12:19.419Z,3.91
2023-02-08T07:14:47.945Z,3.89
2023-02-08T07:17:18.026Z,3.88
2023-02-08T07:19:46.541Z,3.81
2023-02-08T07:22:15.052Z,3.77
2023-02-08T07:24:43.681Z,3.77
2023-02-08T07:27:14.603Z,3.80
2023-02-08T07:29:43.097Z,3.83
2023-02-08T07:32:13.834Z,3.89
2023-02-08T07:34:52.748Z,3.89
2023-02-08T07:37:22.388Z,3.93
2023-02-08T07:39:53.092Z,3.94
2023-02-08T07:42:23.604Z,3.92
2023-02-08T07:44:55.512Z,3.93
2023-02-08T07:47:24.233Z,3.96
2023-02-08T07:49:58.621Z,3.97
2023-02-08T07:52:29.252Z,4.01
2023-02-08T07:54:57.922Z,3.97
2023-02-08T07:57:32.657Z,3.92
2023-02-08T08:00:03.974Z,3.87
2023-02-08T08:02:35.394Z,3.81
2023-02-08T08:05:06.968Z,3.78
2023-02-08T08:07:35.845Z,3.72
2023-02-08T08:10:07.630Z,3.73
2023-02-08T08:12:37.474Z,3.73
2023-02-08T08:15:09.273Z,3.81
2023-02-08T08:17:39.574Z,3.91
2023-02-08T08:20:11.081Z,3.99
2023-02-08T08:22:40.377Z,4.01
2023-02-08T08:25:10.168Z,4.08
2023-02-08T08:27:46.057Z,4.23
2023-02-08T08:30:16.706Z,4.37
2023-02-08T08:32:46.488Z,4.48
2023-02-08T08:35:16.952Z,4.66
2023-02-08T08:38:01.053Z,4.78
2023-02-08T08:40:29.714Z,4.84
2023-02-08T08:42:58.695Z,4.83
2023-02-08T08:45:28.509Z,4.85
2023-02-08T08:47:57.096Z,4.86
2023-02-08T08:50:27.731Z,4.99
2023-02-08T08:52:57.220Z,5.06
2023-02-08T08:55:26.219Z,5.13
2023-02-08T08:58:28.712Z,5.18
2023-02-08T09:00:58.660Z,5.23
2023-02-08T09:03:27.389Z,5.34
2023-02-08T09:05:57.652Z,5.37
2023-02-08T09:08:26.076Z,5.35
2023-02-08T09:10:54.841Z,5.40
2023-02-08T09:13:23.212Z,5.41
2023-02-08T09:15:52.781Z,5.43
2023-02-08T09:18:21.360Z,5.52
2023-02-08T09:20:50.312Z,5.57
2023-02-08T09:23:20.651Z,5.63
2023-02-08T09:25:50.196Z,5.74
2023-02-08T09:28:19.061Z,5.80
2023-02-08T09:30:47.675Z,5.84
2023-02-08T09:33:16.974Z,5.90
2023-02-08T09:35:45.578Z,5.95
2023-02-08T09:38:14.702Z,6.06
2023-02-08T09:41:07.879Z,6.15
2023-02-08T09:43:45.400Z,6.23
2023-02-08T09:46:19.911Z,6.31
2023-02-08T09:48:52.731Z,6.38
2023-02-08T09:51:29.760Z,6.40
2023-02-08T09:54:03.711Z,6.43
2023-02-08T09:56:40.760Z,6.45
2023-02-08T09:59:16.778Z,6.46
2023-02-08T10:01:46.789Z,6.50
2023-02-08T10:04:25.617Z,6.54
2023-02-08T10:06:54.234Z,6.63
2023-02-08T10:09:28.704Z,6.62
2023-02-08T10:12:08.594Z,6.68
2023-02-08T10:14:52.360Z,6.71
2023-02-08T10:17:40.384Z,6.76
2023-02-08T10:20:21.444Z,6.80
2023-02-08T10:23:02.088Z,6.85
2023-02-08T10:25:46.905Z,6.88
2023-02-08T10:28:39.677Z,6.90
2023-02-08T10:31:23.068Z,6.92
2023-02-08T10:34:01.149Z,6.98
2023-02-08T10:36:34.926Z,6.98
2023-02-08T10:39:06.997Z,7.05
2023-02-08T10:41:38.405Z,7.09
2023-02-08T10:44:22.096Z,7.19
2023-02-08T10:46:56.701Z,7.31
2023-02-08T10:49:35.298Z,7.37
2023-02-08T10:52:04.124Z,7.44
2023-02-08T10:54:32.911Z,7.47
2023-02-08T10:57:04.819Z,7.55
2023-02-08T10:59:43.396Z,7.61
2023-02-08T11:02:22.919Z,7.69
2023-02-08T11:05:03.097Z,7.76
2023-02-08T11:07:35.300Z,7.85
2023-02-08T11:10:25.121Z,7.90
2023-02-08T11:13:00.215Z,7.93
2023-02-08T11:15:36.396Z,8.02
2023-02-08T11:18:07.889Z,8.07
2023-02-08T11:20:38.326Z,8.14
2023-02-08T11:23:18.406Z,8.29
2023-02-08T11:25:47.323Z,8.39
2023-02-08T11:28:25.979Z,8.43
2023-02-08T11:31:02.343Z,8.51
2023-02-08T11:33:32.348Z,8.52
2023-02-08T11:36:04.855Z,8.53
2023-02-08T11:38:36.177Z,8.62
2023-02-08T11:41:16.126Z,8.75
2023-02-08T11:43:45.322Z,8.73
2023-02-08T11:46:25.513Z,8.82
2023-02-08T11:48:55.263Z,8.83
2023-02-08T11:51:30.324Z,8.88
2023-02-08T11:54:01.119Z,8.95
2023-02-08T11:56:31.429Z,8.91
2023-02-08T11:59:08.031Z,9.04
2023-02-08T12:01:40.003Z,9.09
2023-02-08T12:04:11.669Z,9.13
2023-02-08T12:07:10.236Z,9.17
2023-02-08T12:10:17.626Z,9.21
2023-02-08T12:13:05.650Z,9.17
2023-02-08T12:15:57.791Z,9.25
2023-02-08T12:18:50.844Z,9.31
2023-02-08T12:21:23.500Z,9.29
2023-02-08T12:23:56.322Z,9.20
2023-02-08T12:26:49.472Z,9.06
2023-02-08T12:29:45.733Z,9.12
2023-02-08T12:32:36.787Z,9.08
2023-02-08T12:35:40.154Z,9.06
2023-02-08T12:38:38.095Z,9.10
2023-02-08T12:41:15.429Z,9.14
2023-02-08T12:43:53.141Z,9.12
2023-02-08T12:46:44.517Z,9.12
2023-02-08T12:49:30.093Z,9.10
2023-02-08T12:52:08.305Z,9.18
2023-02-08T12:54:42.308Z,9.14
2023-02-08T12:57:14.616Z,9.19
2023-02-08T12:59:48.463Z,9.22
2023-02-08T13:02:23.066Z,9.20
2023-02-08T13:04:59.776Z,9.31
2023-02-08T13:07:35.374Z,9.36
2023-02-08T13:10:10.238Z,9.45
2023-02-08T13:12:43.426Z,9.35
2023-02-08T13:15:30.102Z,9.41
2023-02-08T13:18:03.110Z,9.52
2023-02-08T13:20:42.284Z,9.49
2023-02-08T13:23:21.005Z,9.52
2023-02-08T13:25:55.070Z,9.61
2023-02-08T13:28:26.160Z,9.59
2023-02-08T13:31:00.253Z,9.62
2023-02-08T13:33:42.652Z,9.66
2023-02-08T13:36:25.314Z,9.59
2023-02-08T13:38:56.647Z,9.64
2023-02-08T13:41:27.048Z,9.60
2023-02-08T13:44:02.770Z,9.52
2023-02-08T13:46:39.258Z,9.50
2023-02-08T13:49:07.981Z,9.58
2023-02-08T13:51:57.534Z,9.45
2023-02-08T13:54:27.269Z,9.37
2023-02-08T13:56:57.323Z,9.42
2023-02-08T13:59:35.476Z,9.36
2023-02-08T14:02:32.168Z,9.36
2023-02-08T14:05:45.777Z,9.41
2023-02-08T14:08:25.569Z,9.44
2023-02-08T14:11:07.660Z,9.42
2023-02-08T14:13:41.977Z,9.41
2023-02-08T14:16:33.842Z,9.39
2023-02-08T14:19:07.677Z,9.38
2023-02-08T14:21:40.028Z,9.35
2023-02-08T14:24:20.917Z,9.24
2023-02-08T14:26:53.156Z,9.20
2023-02-08T14:29:27.332Z,9.21
2023-02-08T14:31:58.223Z,9.19
2023-02-08T14:34:35.087Z,9.16
2023-02-08T14:37:08.006Z,9.16
2023-02-08T14:39:37.556Z,9.15
2023-02-08T14:42:11.227Z,9.05
2023-02-08T14:45:01.183Z,9.04
2023-02-08T14:48:20.739Z,9.02
2023-02-08T14:51:20.553Z,8.95
2023-02-08T14:53:53.985Z,8.91
2023-02-08T14:56:24.705Z,8.93
2023-02-08T14:58:58.335Z,8.94
2023-02-08T15:01:43.998Z,8.86
2023-02-08T15:04:13.816Z,8.89
2023-02-08T15:07:14.881Z,8.80
2023-02-08T15:09:45.192Z,8.75
2023-02-08T15:12:23.895Z,8.71
2023-02-08T15:14:55.858Z,8.66
2023-02-08T15:17:32.812Z,8.67
2023-02-08T15:20:03.247Z,8.65
2023-02-08T15:22:36.097Z,8.60
2023-02-08T15:25:23.057Z,8.58
2023-02-08T15:27:53.635Z,8.56
2023-02-08T15:30:34.106Z,8.52
2023-02-08T15:33:04.984Z,8.49
2023-02-08T15:35:35.804Z,8.47
2023-02-08T15:38:07.111Z,8.53
2023-02-08T15:40:36.702Z,8.48
2023-02-08T15:43:14.120Z,8.51
2023-02-08T15:45:44.039Z,8.48
2023-02-08T15:48:14.150Z,8.46
2023-02-08T15:50:43.018Z,8.38
2023-02-08T15:53:17.323Z,8.46
2023-02-08T15:55:50.501Z,8.42
2023-02-08T15:58:29.021Z,8.44
2023-02-08T16:01:02.824Z,8.34
2023-02-08T16:03:33.793Z,8.32
2023-02-08T16:06:05.038Z,8.28
2023-02-08T16:08:36.001Z,8.28
2023-02-08T16:11:14.181Z,8.20
2023-02-08T16:13:49.169Z,8.14
2023-02-08T16:16:22.957Z,8.17
2023-02-08T16:18:59.669Z,8.08
2023-02-08T16:21:39.503Z,8.07
2023-02-08T16:24:20.675Z,8.11
2023-02-08T16:26:57.023Z,7.98
2023-02-08T16:29:29.084Z,7.96
2023-02-08T16:32:03.965Z,7.90
2023-02-08T16:34:36.439Z,7.92
2023-02-08T16:37:07.566Z,7.86
2023-02-08T16:39:39.756Z,7.88
2023-02-08T16:42:23.142Z,7.85
2023-02-08T16:45:13.589Z,7.86
2023-02-08T16:47:46.410Z,7.87
2023-02-08T16:50:19.432Z,7.80
2023-02-08T16:52:51.351Z,7.77
2023-02-08T16:55:23.507Z,7.76
2023-02-08T16:57:54.469Z,7.72
2023-02-08T17:00:26.972Z,7.76
2023-02-08T17:02:58.318Z,7.70
2023-02-08T17:05:30.006Z,7.66
2023-02-08T17:08:00.032Z,7.70
2023-02-08T17:10:30.750Z,7.71
2023-02-08T17:13:19.885Z,7.70
2023-02-08T17:15:52.134Z,7.71
2023-02-08T17:18:24.198Z,7.72
2023-02-08T17:20:57.963Z,7.63
2023-02-08T17:23:26.589Z,7.71
2023-02-08T17:25:55.346Z,7.70
2023-02-08T17:28:24.378Z,7.64
2023-02-08T17:31:04.762Z,7.69
2023-02-08T17:33:37.223Z,7.63
2023-02-08T17:36:05.902Z,7.56
2023-02-08T17:38:35.044Z,7.53
2023-02-08T17:41:04.967Z,7.52
2023-02-08T17:43:33.672Z,7.47
2023-02-08T17:46:02.788Z,7.44
2023-02-08T17:48:31.348Z,7.41
2023-02-08T17:51:01.674Z,7.40
2023-02-08T17:53:30.549Z,7.38
2023-02-08T17:56:00.485Z,7.37
2023-02-08T17:58:29.185Z,7.34
2023-02-08T18:00:58.242Z,7.41
2023-02-08T18:03:26.868Z,7.33
2023-02-08T18:06:02.177Z,7.38
2023-02-08T18:08:30.674Z,7.35
2023-02-08T18:11:04.724Z,7.33
2023-02-08T18:13:37.743Z,7.38
2023-02-08T18:16:11.273Z,7.36
2023-02-08T18:18:40.135Z,7.36
2023-02-08T18:21:17.266Z,7.34
2023-02-08T18:23:53.552Z,7.35
2023-02-08T18:26:25.746Z,7.30
2023-02-08T18:28:56.407Z,7.37
2023-02-08T18:31:25.666Z,7.29
2023-02-08T18:33:54.553Z,7.27
2023-02-08T18:36:25.803Z,7.29
2023-02-08T18:38:57.654Z,7.26
2023-02-08T18:41:29.134Z,7.26
2023-02-08T18:44:00.215Z,7.24
2023-02-08T18:46:31.038Z,7.20
2023-02-08T18:48:59.805Z,7.22
2023-02-08T18:51:32.176Z,7.24
2023-02-08T18:54:01.683Z,7.29
2023-02-08T18:56:30.150Z,7.28
2023-02-08T18:59:02.204Z,7.29
2023-02-08T19:01:31.129Z,7.35
2023-02-08T19:04:00.354Z,7.37
2023-02-08T19:06:32.808Z,7.42
2023-02-08T19:09:03.828Z,7.44
2023-02-08T19:11:34.309Z,7.56
2023-02-08T19:14:06.963Z,7.63
2023-02-08T19:16:37.102Z,7.76
2023-02-08T19:19:06.274Z,7.84
2023-02-08T19:21:36.968Z,7.89
2023-02-08T19:24:08.574Z,7.98
2023-02-08T19:26:39.989Z,7.99
2023-02-08T19:29:43.414Z,8.01
2023-02-08T19:32:26.469Z,8.04
2023-02-08T19:35:20.795Z,8.07
2023-02-08T19:38:10.401Z,8.10
2023-02-08T19:40:39.934Z,8.10
2023-02-08T19:43:08.838Z,8.18
2023-02-08T19:45:37.378Z,8.14
2023-02-08T19:48:06.048Z,8.24
2023-02-08T19:50:35.837Z,8.16
2023-02-08T19:53:05.681Z,8.11
2023-02-08T19:55:35.294Z,8.14
2023-02-08T19:58:03.949Z,8.12
2023-02-08T20:00:32.553Z,8.12
2023-02-08T20:03:12.972Z,8.08
2023-02-08T20:05:50.753Z,8.18
2023-02-08T20:08:26.389Z,8.15
2023-02-08T20:10:56.956Z,8.08
2023-02-08T20:13:25.767Z,8.04
2023-02-08T20:15:59.802Z,8.00
2023-02-08T20:18:28.284Z,7.93
2023-02-08T20:21:04.172Z,7.97
2023-02-08T20:23:34.375Z,7.96
2023-02-08T20:26:09.631Z,8.00
2023-02-08T20:28:40.032Z,8.00
2023-02-08T20:31:09.746Z,8.00
2023-02-08T20:33:38.795Z,7.96
2023-02-08T20:36:09.806Z,7.56
2023-02-08T20:38:40.814Z,7.23
2023-02-08T20:41:11.804Z,7.05
2023-02-08T20:43:41.816Z,6.85
2023-02-08T20:46:14.087Z,6.72
2023-02-08T20:48:42.773Z,6.65
2023-02-08T20:51:14.662Z,6.57
2023-02-08T20:53:46.813Z,6.55
2023-02-08T20:56:17.524Z,6.49
2023-02-08T20:58:47.220Z,6.47
2023-02-08T21:01:18.530Z,6.47
2023-02-08T21:03:47.765Z,6.44
2023-02-08T21:06:18.649Z,6.43
2023-02-08T21:08:52.246Z,6.35
2023-02-08T21:11:24.671Z,6.24
2023-02-08T21:13:53.402Z,6.17
2023-02-08T21:16:24.373Z,6.12
2023-02-08T21:18:55.331Z,6.08
2023-02-08T21:21:25.971Z,6.06
2023-02-08T21:23:58.156Z,6.04
2023-02-08T21:26:28.091Z,6.02
2023-02-08T21:28:58.895Z,6.00
2023-02-08T21:31:30.871Z,6.01
2023-02-08T21:33:59.412Z,5.99
2023-02-08T21:36:27.958Z,5.96
2023-02-08T21:38:59.179Z,5.94
2023-02-08T21:41:29.668Z,5.89
2023-02-08T21:43:59.979Z,5.86
2023-02-08T21:46:29.027Z,5.87
2023-02-08T21:49:16.181Z,5.86
2023-02-08T21:52:02.585Z,5.83
2023-02-08T21:54:44.644Z,5.84
2023-02-08T21:57:18.053Z,5.84
2023-02-08T21:59:47.459Z,5.85
2023-02-08T22:02:21.948Z,5.85
2023-02-08T22:05:09.653Z,5.83
2023-02-08T22:07:48.235Z,5.83
2023-02-08T22:10:23.619Z,5.82
2023-02-08T22:12:55.550Z,5.80
2023-02-08T22:15:26.973Z,5.81
2023-02-08T22:18:01.009Z,5.78
2023-02-08T22:20:32.094Z,5.79
2023-02-08T22:23:04.268Z,5.76
2023-02-08T22:25:34.187Z,5.71
2023-02-08T22:28:03.221Z,5.71
2023-02-08T22:30:31.674Z,5.74
2023-02-08T22:33:02.239Z,5.73
2023-02-08T22:35:31.734Z,5.76
2023-02-08T22:38:00.231Z,5.74
2023-02-08T22:40:28.898Z,5.76
2023-02-08T22:42:59.030Z,5.74
2023-02-08T22:45:27.720Z,5.74
2023-02-08T22:47:58.980Z,5.74
2023-02-08T22:50:27.774Z,5.75
2023-02-08T22:52:56.593Z,5.74
2023-02-08T22:55:27.269Z,5.82
2023-02-08T22:57:56.025Z,5.79
2023-02-08T23:00:26.074Z,5.77
2023-02-08T23:02:55.905Z,5.75
2023-02-08T23:05:24.485Z,5.75
2023-02-08T23:07:54.705Z,5.73
2023-02-08T23:10:25.388Z,5.76
2023-02-08T23:12:54.303Z,5.76
2023-02-08T23:15:26.446Z,5.72
2023-02-08T23:17:58.474Z,5.64
2023-02-08T23:20:28.277Z,5.56
2023-02-08T23:22:57.813Z,5.48
2023-02-08T23:25:26.383Z,5.43
2023-02-08T23:27:56.083Z,5.36
2023-02-08T23:30:26.334Z,5.27
2023-02-08T23:32:56.124Z,5.22
2023-02-08T23:35:24.634Z,5.18
2023-02-08T23:37:53.405Z,5.13
2023-02-08T23:40:24.384Z,5.05
2023-02-08T23:42:53.863Z,4.99
2023-02-08T23:45:22.918Z,4.92
2023-02-08T23:47:52.844Z,4.87
2023-02-08T23:50:21.543Z,4.82
2023-02-08T23:52:50.163Z,4.82
2023-02-08T23:55:18.903Z,4.75
2023-02-08T23:57:47.386Z,4.73
